sensor_id;sensor_type;location;lat;lon;timestamp;P1;durP1;ratioP1;P2;durP2;ratioP2
22628;SDS011;11481;53.694;9.910;2022-07-12T00:01:54;1.83;;;0.85;;
22628;SDS011;11481;53.694;9.910;2022-07-12T00:04:21;1.52;;;0.70;;
22628;SDS011;11481;53.694;9.910;2022-07-12T00:06:48;1.83;;;0.80;;
22628;SDS011;11481;53.694;9.910;2022-07-12T00:09:15;1.63;;;0.80;;
22628;SDS011;11481;53.694;9.910;2022-07-12T00:11:42;1.40;;;0.50;;
22628;SDS011;11481;53.694;9.910;2022-07-12T00:14:09;2.13;;;1.10;;
22628;SDS011;11481;53.694;9.910;2022-07-12T00:16:36;1.60;;;0.70;;
22628;SDS011;11481;53.694;9.910;2022-07-12T00:19:03;1.90;;;0.80;;
22628;SDS011;11481;53.694;9.910;2022-07-12T00:21:30;1.90;;;0.60;;
22628;SDS011;11481;53.694;9.910;2022-07-12T00:23:56;1.50;;;0.77;;
22628;SDS011;11481;53.694;9.910;2022-07-12T00:26:23;1.38;;;0.60;;
22628;SDS011;11481;53.694;9.910;2022-07-12T00:28:50;1.83;;;0.85;;
22628;SDS011;11481;53.694;9.910;2022-07-12T00:31:16;1.67;;;0.82;;
22628;SDS011;11481;53.694;9.910;2022-07-12T00:33:43;2.00;;;0.93;;
22628;SDS011;11481;53.694;9.910;2022-07-12T00:36:10;1.77;;;0.60;;
22628;SDS011;11481;53.694;9.910;2022-07-12T00:38:37;1.60;;;0.60;;
22628;SDS011;11481;53.694;9.910;2022-07-12T00:41:03;1.45;;;0.95;;
22628;SDS011;11481;53.694;9.910;2022-07-12T00:43:31;1.83;;;0.68;;
22628;SDS011;11481;53.694;9.910;2022-07-12T00:45:57;1.77;;;0.77;;
22628;SDS011;11481;53.694;9.910;2022-07-12T00:48:24;1.27;;;0.70;;
22628;SDS011;11481;53.694;9.910;2022-07-12T00:50:51;1.23;;;0.80;;
22628;SDS011;11481;53.694;9.910;2022-07-12T00:53:18;2.60;;;0.90;;
22628;SDS011;11481;53.694;9.910;2022-07-12T00:55:55;1.77;;;0.88;;
22628;SDS011;11481;53.694;9.910;2022-07-12T00:58:26;2.28;;;0.80;;
22628;SDS011;11481;53.694;9.910;2022-07-12T01:00:55;1.83;;;1.17;;
22628;SDS011;11481;53.694;9.910;2022-07-12T01:03:23;1.63;;;0.90;;
22628;SDS011;11481;53.694;9.910;2022-07-12T01:05:51;1.30;;;0.60;;
22628;SDS011;11481;53.694;9.910;2022-07-12T01:08:18;1.02;;;0.70;;
22628;SDS011;11481;53.694;9.910;2022-07-12T01:10:45;1.10;;;0.70;;
22628;SDS011;11481;53.694;9.910;2022-07-12T01:13:16;2.30;;;1.25;;
22628;SDS011;11481;53.694;9.910;2022-07-12T01:15:43;1.40;;;0.70;;
22628;SDS011;11481;53.694;9.910;2022-07-12T01:18:12;2.42;;;1.10;;
22628;SDS011;11481;53.694;9.910;2022-07-12T01:20:39;3.53;;;1.27;;
22628;SDS011;11481;53.694;9.910;2022-07-12T01:23:06;2.60;;;1.00;;
22628;SDS011;11481;53.694;9.910;2022-07-12T01:25:35;1.75;;;0.80;;
22628;SDS011;11481;53.694;9.910;2022-07-12T01:28:02;1.85;;;0.75;;
22628;SDS011;11481;53.694;9.910;2022-07-12T01:30:29;2.22;;;0.93;;
22628;SDS011;11481;53.694;9.910;2022-07-12T01:32:56;1.80;;;0.90;;
22628;SDS011;11481;53.694;9.910;2022-07-12T01:35:25;2.67;;;0.95;;
22628;SDS011;11481;53.694;9.910;2022-07-12T01:37:52;1.67;;;0.90;;
22628;SDS011;11481;53.694;9.910;2022-07-12T01:40:18;2.17;;;1.23;;
22628;SDS011;11481;53.694;9.910;2022-07-12T01:42:46;2.17;;;0.85;;
22628;SDS011;11481;53.694;9.910;2022-07-12T01:45:15;2.25;;;0.98;;
22628;SDS011;11481;53.694;9.910;2022-07-12T01:47:41;1.08;;;0.65;;
22628;SDS011;11481;53.694;9.910;2022-07-12T01:50:08;1.15;;;0.70;;
22628;SDS011;11481;53.694;9.910;2022-07-12T01:52:37;1.48;;;0.60;;
22628;SDS011;11481;53.694;9.910;2022-07-12T01:55:06;0.85;;;0.65;;
22628;SDS011;11481;53.694;9.910;2022-07-12T01:57:34;1.42;;;0.73;;
22628;SDS011;11481;53.694;9.910;2022-07-12T02:00:03;2.20;;;0.90;;
22628;SDS011;11481;53.694;9.910;2022-07-12T02:02:31;1.48;;;0.70;;
22628;SDS011;11481;53.694;9.910;2022-07-12T02:04:59;1.63;;;0.88;;
22628;SDS011;11481;53.694;9.910;2022-07-12T02:07:27;1.90;;;0.80;;
22628;SDS011;11481;53.694;9.910;2022-07-12T02:09:54;2.10;;;1.02;;
22628;SDS011;11481;53.694;9.910;2022-07-12T02:12:21;1.60;;;0.80;;
22628;SDS011;11481;53.694;9.910;2022-07-12T02:14:47;1.52;;;0.60;;
22628;SDS011;11481;53.694;9.910;2022-07-12T02:17:14;2.60;;;1.13;;
22628;SDS011;11481;53.694;9.910;2022-07-12T02:19:46;1.50;;;0.73;;
22628;SDS011;11481;53.694;9.910;2022-07-12T02:22:12;1.90;;;0.93;;
22628;SDS011;11481;53.694;9.910;2022-07-12T02:24:39;2.38;;;1.02;;
22628;SDS011;11481;53.694;9.910;2022-07-12T02:27:06;2.30;;;0.98;;
22628;SDS011;11481;53.694;9.910;2022-07-12T02:29:33;2.13;;;1.00;;
22628;SDS011;11481;53.694;9.910;2022-07-12T02:32:02;2.25;;;0.90;;
22628;SDS011;11481;53.694;9.910;2022-07-12T02:34:28;2.03;;;0.98;;
22628;SDS011;11481;53.694;9.910;2022-07-12T02:36:56;2.13;;;1.00;;
22628;SDS011;11481;53.694;9.910;2022-07-12T02:39:23;2.00;;;0.77;;
22628;SDS011;11481;53.694;9.910;2022-07-12T02:41:52;2.67;;;1.15;;
22628;SDS011;11481;53.694;9.910;2022-07-12T02:44:18;3.55;;;1.13;;
22628;SDS011;11481;53.694;9.910;2022-07-12T02:46:45;3.15;;;1.60;;
22628;SDS011;11481;53.694;9.910;2022-07-12T02:49:13;2.42;;;1.15;;
22628;SDS011;11481;53.694;9.910;2022-07-12T02:51:39;3.58;;;1.40;;
22628;SDS011;11481;53.694;9.910;2022-07-12T02:54:06;4.10;;;1.70;;
22628;SDS011;11481;53.694;9.910;2022-07-12T02:56:33;3.08;;;1.30;;
22628;SDS011;11481;53.694;9.910;2022-07-12T02:58:59;3.55;;;1.30;;
22628;SDS011;11481;53.694;9.910;2022-07-12T03:01:26;1.33;;;0.73;;
22628;SDS011;11481;53.694;9.910;2022-07-12T03:03:53;3.15;;;1.58;;
22628;SDS011;11481;53.694;9.910;2022-07-12T03:06:19;2.35;;;1.30;;
22628;SDS011;11481;53.694;9.910;2022-07-12T03:08:46;3.42;;;1.08;;
22628;SDS011;11481;53.694;9.910;2022-07-12T03:11:13;2.90;;;1.13;;
22628;SDS011;11481;53.694;9.910;2022-07-12T03:13:39;3.03;;;1.00;;
22628;SDS011;11481;53.694;9.910;2022-07-12T03:16:06;3.60;;;1.15;;
22628;SDS011;11481;53.694;9.910;2022-07-12T03:18:33;1.48;;;1.10;;
22628;SDS011;11481;53.694;9.910;2022-07-12T03:21:00;2.75;;;1.13;;
22628;SDS011;11481;53.694;9.910;2022-07-12T03:23:28;4.03;;;1.40;;
22628;SDS011;11481;53.694;9.910;2022-07-12T03:25:55;3.05;;;1.63;;
22628;SDS011;11481;53.694;9.910;2022-07-12T03:28:21;2.25;;;1.17;;
22628;SDS011;11481;53.694;9.910;2022-07-12T03:30:48;2.15;;;0.98;;
22628;SDS011;11481;53.694;9.910;2022-07-12T03:33:16;1.30;;;0.85;;
22628;SDS011;11481;53.694;9.910;2022-07-12T03:35:43;1.55;;;0.77;;
22628;SDS011;11481;53.694;9.910;2022-07-12T03:38:09;2.22;;;1.13;;
22628;SDS011;11481;53.694;9.910;2022-07-12T03:40:36;2.78;;;1.10;;
22628;SDS011;11481;53.694;9.910;2022-07-12T03:43:03;2.08;;;1.38;;
22628;SDS011;11481;53.694;9.910;2022-07-12T03:45:30;3.50;;;1.20;;
22628;SDS011;11481;53.694;9.910;2022-07-12T03:47:56;1.67;;;1.30;;
22628;SDS011;11481;53.694;9.910;2022-07-12T03:50:23;2.03;;;1.20;;
22628;SDS011;11481;53.694;9.910;2022-07-12T03:52:50;2.25;;;1.23;;
22628;SDS011;11481;53.694;9.910;2022-07-12T03:55:17;3.30;;;1.55;;
22628;SDS011;11481;53.694;9.910;2022-07-12T03:57:44;3.35;;;1.52;;
22628;SDS011;11481;53.694;9.910;2022-07-12T04:00:11;3.35;;;1.20;;
22628;SDS011;11481;53.694;9.910;2022-07-12T04:02:39;2.42;;;1.67;;
22628;SDS011;11481;53.694;9.910;2022-07-12T04:05:07;3.28;;;1.02;;
22628;SDS011;11481;53.694;9.910;2022-07-12T04:07:36;2.15;;;0.82;;
22628;SDS011;11481;53.694;9.910;2022-07-12T04:10:04;4.10;;;1.63;;
22628;SDS011;11481;53.694;9.910;2022-07-12T04:12:31;6.88;;;1.75;;
22628;SDS011;11481;53.694;9.910;2022-07-12T04:14:58;4.13;;;1.40;;
22628;SDS011;11481;53.694;9.910;2022-07-12T04:17:25;3.40;;;1.25;;
22628;SDS011;11481;53.694;9.910;2022-07-12T04:19:51;4.97;;;1.55;;
22628;SDS011;11481;53.694;9.910;2022-07-12T04:22:19;6.07;;;1.90;;
22628;SDS011;11481;53.694;9.910;2022-07-12T04:24:45;3.25;;;2.05;;
22628;SDS011;11481;53.694;9.910;2022-07-12T04:27:12;2.55;;;1.55;;
22628;SDS011;11481;53.694;9.910;2022-07-12T04:29:39;3.90;;;2.00;;
22628;SDS011;11481;53.694;9.910;2022-07-12T04:32:06;5.63;;;2.15;;
22628;SDS011;11481;53.694;9.910;2022-07-12T04:34:33;4.75;;;2.35;;
22628;SDS011;11481;53.694;9.910;2022-07-12T04:36:59;4.28;;;1.90;;
22628;SDS011;11481;53.694;9.910;2022-07-12T04:39:26;3.95;;;2.10;;
22628;SDS011;11481;53.694;9.910;2022-07-12T04:41:52;7.72;;;2.47;;
22628;SDS011;11481;53.694;9.910;2022-07-12T04:44:19;4.63;;;2.28;;
22628;SDS011;11481;53.694;9.910;2022-07-12T04:46:46;4.25;;;1.80;;
22628;SDS011;11481;53.694;9.910;2022-07-12T04:49:12;4.85;;;2.13;;
22628;SDS011;11481;53.694;9.910;2022-07-12T04:51:39;5.88;;;2.85;;
22628;SDS011;11481;53.694;9.910;2022-07-12T04:54:06;5.00;;;2.30;;
22628;SDS011;11481;53.694;9.910;2022-07-12T04:56:33;5.28;;;2.38;;
22628;SDS011;11481;53.694;9.910;2022-07-12T04:59:01;7.75;;;2.88;;
22628;SDS011;11481;53.694;9.910;2022-07-12T05:01:29;6.07;;;2.70;;
22628;SDS011;11481;53.694;9.910;2022-07-12T05:03:56;5.55;;;2.17;;
22628;SDS011;11481;53.694;9.910;2022-07-12T05:06:22;4.38;;;2.28;;
22628;SDS011;11481;53.694;9.910;2022-07-12T05:08:49;5.93;;;2.75;;
22628;SDS011;11481;53.694;9.910;2022-07-12T05:11:17;4.85;;;2.80;;
22628;SDS011;11481;53.694;9.910;2022-07-12T05:13:47;5.47;;;2.28;;
22628;SDS011;11481;53.694;9.910;2022-07-12T05:16:15;12.50;;;2.83;;
22628;SDS011;11481;53.694;9.910;2022-07-12T05:18:41;5.03;;;2.35;;
22628;SDS011;11481;53.694;9.910;2022-07-12T05:21:08;5.78;;;2.20;;
22628;SDS011;11481;53.694;9.910;2022-07-12T05:23:35;5.53;;;2.22;;
22628;SDS011;11481;53.694;9.910;2022-07-12T05:26:01;3.70;;;1.90;;
22628;SDS011;11481;53.694;9.910;2022-07-12T05:28:28;5.65;;;2.55;;
22628;SDS011;11481;53.694;9.910;2022-07-12T05:30:55;5.13;;;2.03;;
22628;SDS011;11481;53.694;9.910;2022-07-12T05:33:22;9.18;;;3.20;;
22628;SDS011;11481;53.694;9.910;2022-07-12T05:35:49;4.45;;;2.22;;
22628;SDS011;11481;53.694;9.910;2022-07-12T05:38:17;6.10;;;3.13;;
22628;SDS011;11481;53.694;9.910;2022-07-12T05:40:44;6.90;;;2.50;;
22628;SDS011;11481;53.694;9.910;2022-07-12T05:43:10;5.18;;;2.58;;
22628;SDS011;11481;53.694;9.910;2022-07-12T05:45:37;3.53;;;1.67;;
22628;SDS011;11481;53.694;9.910;2022-07-12T05:48:04;7.03;;;2.88;;
22628;SDS011;11481;53.694;9.910;2022-07-12T05:50:31;6.40;;;2.53;;
22628;SDS011;11481;53.694;9.910;2022-07-12T05:52:57;5.05;;;2.75;;
22628;SDS011;11481;53.694;9.910;2022-07-12T05:55:42;6.80;;;2.13;;
22628;SDS011;11481;53.694;9.910;2022-07-12T05:58:11;4.28;;;1.88;;
22628;SDS011;11481;53.694;9.910;2022-07-12T06:00:37;3.30;;;2.13;;
22628;SDS011;11481;53.694;9.910;2022-07-12T06:03:04;5.00;;;2.30;;
22628;SDS011;11481;53.694;9.910;2022-07-12T06:05:31;4.93;;;2.28;;
22628;SDS011;11481;53.694;9.910;2022-07-12T06:07:58;4.53;;;2.10;;
22628;SDS011;11481;53.694;9.910;2022-07-12T06:10:24;4.20;;;2.35;;
22628;SDS011;11481;53.694;9.910;2022-07-12T06:12:51;5.15;;;2.70;;
22628;SDS011;11481;53.694;9.910;2022-07-12T06:15:18;5.20;;;2.22;;
22628;SDS011;11481;53.694;9.910;2022-07-12T06:17:45;3.50;;;1.85;;
22628;SDS011;11481;53.694;9.910;2022-07-12T06:20:12;3.85;;;2.00;;
22628;SDS011;11481;53.694;9.910;2022-07-12T06:22:38;3.55;;;1.45;;
22628;SDS011;11481;53.694;9.910;2022-07-12T06:25:05;4.30;;;1.92;;
22628;SDS011;11481;53.694;9.910;2022-07-12T06:27:52;2.85;;;1.13;;
22628;SDS011;11481;53.694;9.910;2022-07-12T06:30:20;2.47;;;1.30;;
22628;SDS011;11481;53.694;9.910;2022-07-12T06:32:48;1.83;;;0.88;;
22628;SDS011;11481;53.694;9.910;2022-07-12T06:35:15;3.22;;;0.85;;
22628;SDS011;11481;53.694;9.910;2022-07-12T06:37:42;1.88;;;0.68;;
22628;SDS011;11481;53.694;9.910;2022-07-12T06:40:09;2.22;;;1.02;;
22628;SDS011;11481;53.694;9.910;2022-07-12T06:42:37;2.03;;;0.93;;
22628;SDS011;11481;53.694;9.910;2022-07-12T06:45:04;1.73;;;0.82;;
22628;SDS011;11481;53.694;9.910;2022-07-12T06:47:31;1.58;;;1.10;;
22628;SDS011;11481;53.694;9.910;2022-07-12T06:49:58;2.13;;;1.02;;
22628;SDS011;11481;53.694;9.910;2022-07-12T06:52:24;2.55;;;0.95;;
22628;SDS011;11481;53.694;9.910;2022-07-12T06:54:56;4.03;;;1.20;;
22628;SDS011;11481;53.694;9.910;2022-07-12T06:57:23;5.20;;;1.52;;
22628;SDS011;11481;53.694;9.910;2022-07-12T06:59:50;2.05;;;0.88;;
22628;SDS011;11481;53.694;9.910;2022-07-12T07:02:17;2.17;;;1.10;;
22628;SDS011;11481;53.694;9.910;2022-07-12T07:04:43;2.53;;;1.15;;
22628;SDS011;11481;53.694;9.910;2022-07-12T07:07:10;1.98;;;0.80;;
22628;SDS011;11481;53.694;9.910;2022-07-12T07:09:37;2.28;;;0.90;;
22628;SDS011;11481;53.694;9.910;2022-07-12T07:12:03;1.73;;;0.80;;
22628;SDS011;11481;53.694;9.910;2022-07-12T07:14:31;3.88;;;0.98;;
22628;SDS011;11481;53.694;9.910;2022-07-12T07:16:57;1.85;;;0.98;;
22628;SDS011;11481;53.694;9.910;2022-07-12T07:19:24;2.38;;;0.93;;
22628;SDS011;11481;53.694;9.910;2022-07-12T07:21:52;1.83;;;0.82;;
22628;SDS011;11481;53.694;9.910;2022-07-12T07:24:22;4.75;;;1.20;;
22628;SDS011;11481;53.694;9.910;2022-07-12T07:26:49;1.83;;;1.00;;
22628;SDS011;11481;53.694;9.910;2022-07-12T07:29:23;2.40;;;1.23;;
22628;SDS011;11481;53.694;9.910;2022-07-12T07:32:08;2.00;;;0.82;;
22628;SDS011;11481;53.694;9.910;2022-07-12T07:34:35;2.33;;;1.10;;
22628;SDS011;11481;53.694;9.910;2022-07-12T07:37:02;1.77;;;0.85;;
22628;SDS011;11481;53.694;9.910;2022-07-12T07:39:29;1.52;;;0.80;;
22628;SDS011;11481;53.694;9.910;2022-07-12T07:41:55;1.77;;;0.75;;
22628;SDS011;11481;53.694;9.910;2022-07-12T07:44:22;2.58;;;1.02;;
22628;SDS011;11481;53.694;9.910;2022-07-12T07:46:58;1.65;;;0.93;;
22628;SDS011;11481;53.694;9.910;2022-07-12T07:49:25;1.45;;;0.73;;
22628;SDS011;11481;53.694;9.910;2022-07-12T07:51:51;2.58;;;1.25;;
22628;SDS011;11481;53.694;9.910;2022-07-12T07:54:18;2.08;;;1.08;;
22628;SDS011;11481;53.694;9.910;2022-07-12T07:56:44;1.02;;;0.63;;
22628;SDS011;11481;53.694;9.910;2022-07-12T07:59:11;1.55;;;0.88;;
22628;SDS011;11481;53.694;9.910;2022-07-12T08:01:38;1.05;;;0.60;;
22628;SDS011;11481;53.694;9.910;2022-07-12T08:04:26;2.38;;;0.90;;
22628;SDS011;11481;53.694;9.910;2022-07-12T08:06:52;1.40;;;0.75;;
22628;SDS011;11481;53.694;9.910;2022-07-12T08:09:19;1.30;;;0.68;;
22628;SDS011;11481;53.694;9.910;2022-07-12T08:11:46;1.20;;;0.88;;
22628;SDS011;11481;53.694;9.910;2022-07-12T08:14:12;2.65;;;0.90;;
22628;SDS011;11481;53.694;9.910;2022-07-12T08:16:39;1.13;;;0.80;;
22628;SDS011;11481;53.694;9.910;2022-07-12T08:19:06;2.55;;;0.85;;
22628;SDS011;11481;53.694;9.910;2022-07-12T08:21:33;2.70;;;1.10;;
22628;SDS011;11481;53.694;9.910;2022-07-12T08:24:00;1.60;;;1.00;;
22628;SDS011;11481;53.694;9.910;2022-07-12T08:26:27;1.85;;;1.13;;
22628;SDS011;11481;53.694;9.910;2022-07-12T08:28:53;1.75;;;0.90;;
22628;SDS011;11481;53.694;9.910;2022-07-12T08:31:20;1.92;;;0.90;;
22628;SDS011;11481;53.694;9.910;2022-07-12T08:33:47;2.60;;;1.23;;
22628;SDS011;11481;53.694;9.910;2022-07-12T08:36:13;5.15;;;0.85;;
22628;SDS011;11481;53.694;9.910;2022-07-12T08:38:40;2.58;;;1.65;;
22628;SDS011;11481;53.694;9.910;2022-07-12T08:41:11;2.50;;;0.80;;
22628;SDS011;11481;53.694;9.910;2022-07-12T08:43:39;2.50;;;1.00;;
22628;SDS011;11481;53.694;9.910;2022-07-12T08:46:07;1.27;;;0.52;;
22628;SDS011;11481;53.694;9.910;2022-07-12T08:48:39;1.45;;;0.50;;
22628;SDS011;11481;53.694;9.910;2022-07-12T08:51:07;2.03;;;1.13;;
22628;SDS011;11481;53.694;9.910;2022-07-12T08:53:47;1.83;;;0.73;;
22628;SDS011;11481;53.694;9.910;2022-07-12T08:56:40;4.50;;;0.80;;
22628;SDS011;11481;53.694;9.910;2022-07-12T08:59:11;2.42;;;1.20;;
22628;SDS011;11481;53.694;9.910;2022-07-12T09:01:43;2.15;;;0.90;;
22628;SDS011;11481;53.694;9.910;2022-07-12T09:04:19;4.93;;;1.13;;
22628;SDS011;11481;53.694;9.910;2022-07-12T09:06:50;2.25;;;1.08;;
22628;SDS011;11481;53.694;9.910;2022-07-12T09:09:33;1.92;;;1.00;;
22628;SDS011;11481;53.694;9.910;2022-07-12T09:12:01;1.60;;;0.80;;
22628;SDS011;11481;53.694;9.910;2022-07-12T09:14:28;2.03;;;0.80;;
22628;SDS011;11481;53.694;9.910;2022-07-12T09:19:38;1.92;;;0.80;;
22628;SDS011;11481;53.694;9.910;2022-07-12T09:22:15;2.22;;;1.02;;
22628;SDS011;11481;53.694;9.910;2022-07-12T09:24:43;3.08;;;1.20;;
22628;SDS011;11481;53.694;9.910;2022-07-12T09:27:09;2.75;;;0.77;;
22628;SDS011;11481;53.694;9.910;2022-07-12T09:29:57;2.03;;;0.90;;
22628;SDS011;11481;53.694;9.910;2022-07-12T09:32:25;4.80;;;0.82;;
22628;SDS011;11481;53.694;9.910;2022-07-12T09:35:11;3.35;;;0.82;;
22628;SDS011;11481;53.694;9.910;2022-07-12T09:38:07;1.95;;;0.98;;
22628;SDS011;11481;53.694;9.910;2022-07-12T09:40:34;1.30;;;0.70;;
22628;SDS011;11481;53.694;9.910;2022-07-12T09:43:01;1.67;;;0.85;;
22628;SDS011;11481;53.694;9.910;2022-07-12T09:45:31;1.50;;;0.88;;
22628;SDS011;11481;53.694;9.910;2022-07-12T09:47:58;1.88;;;0.88;;
22628;SDS011;11481;53.694;9.910;2022-07-12T09:50:25;1.30;;;0.75;;
22628;SDS011;11481;53.694;9.910;2022-07-12T09:52:55;2.33;;;0.90;;
22628;SDS011;11481;53.694;9.910;2022-07-12T09:55:25;1.65;;;1.00;;
22628;SDS011;11481;53.694;9.910;2022-07-12T09:57:55;1.35;;;0.63;;
22628;SDS011;11481;53.694;9.910;2022-07-12T10:00:26;2.35;;;1.30;;
22628;SDS011;11481;53.694;9.910;2022-07-12T10:02:53;2.67;;;1.23;;
22628;SDS011;11481;53.694;9.910;2022-07-12T10:05:23;1.45;;;0.88;;
22628;SDS011;11481;53.694;9.910;2022-07-12T10:07:51;1.63;;;0.95;;
22628;SDS011;11481;53.694;9.910;2022-07-12T10:10:18;1.52;;;0.93;;
22628;SDS011;11481;53.694;9.910;2022-07-12T10:12:45;2.28;;;1.08;;
22628;SDS011;11481;53.694;9.910;2022-07-12T10:15:15;1.75;;;0.90;;
22628;SDS011;11481;53.694;9.910;2022-07-12T10:17:51;1.83;;;1.00;;
22628;SDS011;11481;53.694;9.910;2022-07-12T10:20:23;3.05;;;1.48;;
22628;SDS011;11481;53.694;9.910;2022-07-12T10:22:53;3.83;;;1.40;;
22628;SDS011;11481;53.694;9.910;2022-07-12T10:27:51;2.45;;;1.35;;
22628;SDS011;11481;53.694;9.910;2022-07-12T10:30:19;1.40;;;0.80;;
22628;SDS011;11481;53.694;9.910;2022-07-12T10:32:48;2.03;;;1.05;;
22628;SDS011;11481;53.694;9.910;2022-07-12T10:35:17;1.75;;;1.05;;
22628;SDS011;11481;53.694;9.910;2022-07-12T10:40:37;1.27;;;0.95;;
22628;SDS011;11481;53.694;9.910;2022-07-12T10:45:40;2.55;;;0.98;;
22628;SDS011;11481;53.694;9.910;2022-07-12T10:48:18;2.10;;;1.10;;
22628;SDS011;11481;53.694;9.910;2022-07-12T10:53:34;2.95;;;1.20;;
22628;SDS011;11481;53.694;9.910;2022-07-12T10:58:31;1.77;;;0.93;;
22628;SDS011;11481;53.694;9.910;2022-07-12T11:01:09;2.30;;;1.13;;
22628;SDS011;11481;53.694;9.910;2022-07-12T11:06:14;4.43;;;1.25;;
22628;SDS011;11481;53.694;9.910;2022-07-12T11:11:34;2.83;;;1.60;;
22628;SDS011;11481;53.694;9.910;2022-07-12T11:14:07;3.60;;;1.05;;
22628;SDS011;11481;53.694;9.910;2022-07-12T11:16:33;1.35;;;0.90;;
22628;SDS011;11481;53.694;9.910;2022-07-12T11:19:00;1.80;;;1.10;;
22628;SDS011;11481;53.694;9.910;2022-07-12T11:21:29;1.35;;;0.82;;
22628;SDS011;11481;53.694;9.910;2022-07-12T11:23:59;2.28;;;1.10;;
22628;SDS011;11481;53.694;9.910;2022-07-12T11:26:27;1.38;;;0.80;;
22628;SDS011;11481;53.694;9.910;2022-07-12T11:28:57;2.22;;;1.10;;
22628;SDS011;11481;53.694;9.910;2022-07-12T11:31:24;2.10;;;1.08;;
22628;SDS011;11481;53.694;9.910;2022-07-12T11:33:52;3.22;;;1.20;;
22628;SDS011;11481;53.694;9.910;2022-07-12T11:36:18;2.88;;;1.48;;
22628;SDS011;11481;53.694;9.910;2022-07-12T11:38:46;1.70;;;1.00;;
22628;SDS011;11481;53.694;9.910;2022-07-12T11:41:13;2.13;;;1.33;;
22628;SDS011;11481;53.694;9.910;2022-07-12T11:43:40;2.08;;;1.00;;
22628;SDS011;11481;53.694;9.910;2022-07-12T11:46:08;3.30;;;1.60;;
22628;SDS011;11481;53.694;9.910;2022-07-12T11:48:36;2.50;;;1.17;;
22628;SDS011;11481;53.694;9.910;2022-07-12T11:51:04;1.67;;;1.00;;
22628;SDS011;11481;53.694;9.910;2022-07-12T11:53:33;2.47;;;1.20;;
22628;SDS011;11481;53.694;9.910;2022-07-12T11:56:01;1.52;;;0.85;;
22628;SDS011;11481;53.694;9.910;2022-07-12T11:58:30;2.13;;;1.15;;
22628;SDS011;11481;53.694;9.910;2022-07-12T12:01:04;2.22;;;1.13;;
22628;SDS011;11481;53.694;9.910;2022-07-12T12:03:41;3.20;;;1.10;;
22628;SDS011;11481;53.694;9.910;2022-07-12T12:06:10;2.42;;;1.30;;
22628;SDS011;11481;53.694;9.910;2022-07-12T12:08:37;2.08;;;1.08;;
22628;SDS011;11481;53.694;9.910;2022-07-12T12:11:04;3.63;;;1.75;;
22628;SDS011;11481;53.694;9.910;2022-07-12T12:13:30;2.50;;;1.23;;
22628;SDS011;11481;53.694;9.910;2022-07-12T12:15:58;2.45;;;1.02;;
22628;SDS011;11481;53.694;9.910;2022-07-12T12:18:28;2.35;;;1.08;;
22628;SDS011;11481;53.694;9.910;2022-07-12T12:20:59;2.22;;;1.20;;
22628;SDS011;11481;53.694;9.910;2022-07-12T12:23:28;2.75;;;1.13;;
22628;SDS011;11481;53.694;9.910;2022-07-12T12:28:47;4.95;;;1.33;;
22628;SDS011;11481;53.694;9.910;2022-07-12T12:31:16;2.28;;;1.35;;
22628;SDS011;11481;53.694;9.910;2022-07-12T12:33:45;3.33;;;1.48;;
22628;SDS011;11481;53.694;9.910;2022-07-12T12:36:19;2.92;;;1.60;;
22628;SDS011;11481;53.694;9.910;2022-07-12T12:38:53;2.63;;;1.33;;
22628;SDS011;11481;53.694;9.910;2022-07-12T12:41:22;3.15;;;1.17;;
22628;SDS011;11481;53.694;9.910;2022-07-12T12:43:57;3.08;;;1.02;;
22628;SDS011;11481;53.694;9.910;2022-07-12T12:52:17;2.25;;;0.73;;
22628;SDS011;11481;53.694;9.910;2022-07-12T12:55:09;1.65;;;0.98;;
22628;SDS011;11481;53.694;9.910;2022-07-12T12:57:35;1.52;;;0.70;;
22628;SDS011;11481;53.694;9.910;2022-07-12T13:00:02;1.60;;;1.00;;
22628;SDS011;11481;53.694;9.910;2022-07-12T13:02:29;4.03;;;0.98;;
22628;SDS011;11481;53.694;9.910;2022-07-12T13:04:56;3.03;;;1.20;;
22628;SDS011;11481;53.694;9.910;2022-07-12T13:07:22;1.90;;;0.90;;
22628;SDS011;11481;53.694;9.910;2022-07-12T13:09:49;1.35;;;0.80;;
22628;SDS011;11481;53.694;9.910;2022-07-12T13:12:16;2.40;;;1.17;;
22628;SDS011;11481;53.694;9.910;2022-07-12T13:14:42;1.90;;;0.90;;
22628;SDS011;11481;53.694;9.910;2022-07-12T13:17:09;2.25;;;1.25;;
22628;SDS011;11481;53.694;9.910;2022-07-12T13:19:36;1.63;;;0.90;;
22628;SDS011;11481;53.694;9.910;2022-07-12T13:22:03;1.85;;;1.20;;
22628;SDS011;11481;53.694;9.910;2022-07-12T13:24:30;2.03;;;0.80;;
22628;SDS011;11481;53.694;9.910;2022-07-12T13:26:57;0.98;;;0.70;;
22628;SDS011;11481;53.694;9.910;2022-07-12T13:29:23;0.82;;;0.63;;
22628;SDS011;11481;53.694;9.910;2022-07-12T13:31:51;1.58;;;0.90;;
22628;SDS011;11481;53.694;9.910;2022-07-12T13:34:22;1.15;;;0.75;;
22628;SDS011;11481;53.694;9.910;2022-07-12T13:36:49;2.60;;;0.82;;
22628;SDS011;11481;53.694;9.910;2022-07-12T13:39:17;2.35;;;0.80;;
22628;SDS011;11481;53.694;9.910;2022-07-12T13:42:02;1.90;;;1.02;;
22628;SDS011;11481;53.694;9.910;2022-07-12T13:44:29;1.33;;;0.88;;
22628;SDS011;11481;53.694;9.910;2022-07-12T13:46:55;1.52;;;0.52;;
22628;SDS011;11481;53.694;9.910;2022-07-12T13:49:22;1.48;;;0.45;;
22628;SDS011;11481;53.694;9.910;2022-07-12T13:51:50;2.15;;;0.50;;
22628;SDS011;11481;53.694;9.910;2022-07-12T13:54:16;0.80;;;0.63;;
22628;SDS011;11481;53.694;9.910;2022-07-12T13:56:43;1.30;;;0.80;;
22628;SDS011;11481;53.694;9.910;2022-07-12T13:59:11;0.80;;;0.50;;
22628;SDS011;11481;53.694;9.910;2022-07-12T14:01:38;1.08;;;0.70;;
22628;SDS011;11481;53.694;9.910;2022-07-12T14:04:05;1.27;;;0.70;;
22628;SDS011;11481;53.694;9.910;2022-07-12T14:06:31;0.88;;;0.57;;
22628;SDS011;11481;53.694;9.910;2022-07-12T14:08:58;1.05;;;0.50;;
22628;SDS011;11481;53.694;9.910;2022-07-12T14:11:26;0.98;;;0.75;;
22628;SDS011;11481;53.694;9.910;2022-07-12T14:13:52;1.45;;;0.70;;
22628;SDS011;11481;53.694;9.910;2022-07-12T14:16:19;1.02;;;0.70;;
22628;SDS011;11481;53.694;9.910;2022-07-12T14:19:10;0.98;;;0.60;;
22628;SDS011;11481;53.694;9.910;2022-07-12T14:21:37;1.23;;;0.80;;
22628;SDS011;11481;53.694;9.910;2022-07-12T14:24:04;1.08;;;0.80;;
22628;SDS011;11481;53.694;9.910;2022-07-12T14:26:31;1.00;;;0.45;;
22628;SDS011;11481;53.694;9.910;2022-07-12T14:28:57;2.08;;;0.80;;
22628;SDS011;11481;53.694;9.910;2022-07-12T14:31:24;0.90;;;0.60;;
22628;SDS011;11481;53.694;9.910;2022-07-12T14:33:51;1.10;;;0.70;;
22628;SDS011;11481;53.694;9.910;2022-07-12T14:36:17;0.95;;;0.65;;
22628;SDS011;11481;53.694;9.910;2022-07-12T14:38:44;1.15;;;0.80;;
22628;SDS011;11481;53.694;9.910;2022-07-12T14:41:18;0.95;;;0.47;;
22628;SDS011;11481;53.694;9.910;2022-07-12T14:43:44;1.60;;;0.80;;
22628;SDS011;11481;53.694;9.910;2022-07-12T14:46:13;0.68;;;0.50;;
22628;SDS011;11481;53.694;9.910;2022-07-12T14:48:40;1.70;;;0.80;;
22628;SDS011;11481;53.694;9.910;2022-07-12T14:51:07;1.17;;;0.70;;
22628;SDS011;11481;53.694;9.910;2022-07-12T14:53:34;1.77;;;0.98;;
22628;SDS011;11481;53.694;9.910;2022-07-12T14:56:01;0.80;;;0.57;;
22628;SDS011;11481;53.694;9.910;2022-07-12T14:58:27;0.85;;;0.60;;
22628;SDS011;11481;53.694;9.910;2022-07-12T15:00:56;3.97;;;0.63;;
22628;SDS011;11481;53.694;9.910;2022-07-12T15:03:23;1.60;;;0.90;;
22628;SDS011;11481;53.694;9.910;2022-07-12T15:05:50;1.15;;;0.57;;
22628;SDS011;11481;53.694;9.910;2022-07-12T15:08:17;1.05;;;0.60;;
22628;SDS011;11481;53.694;9.910;2022-07-12T15:10:44;1.35;;;0.70;;
22628;SDS011;11481;53.694;9.910;2022-07-12T15:13:10;1.10;;;0.63;;
22628;SDS011;11481;53.694;9.910;2022-07-12T15:15:37;1.40;;;0.82;;
22628;SDS011;11481;53.694;9.910;2022-07-12T15:18:04;3.55;;;0.90;;
22628;SDS011;11481;53.694;9.910;2022-07-12T15:20:30;1.00;;;0.73;;
22628;SDS011;11481;53.694;9.910;2022-07-12T15:22:59;1.67;;;0.93;;
22628;SDS011;11481;53.694;9.910;2022-07-12T15:25:29;1.45;;;0.90;;